Stowe, Vermont
Current Conditions -  °F | °C
As of 1:54 PM on Monday 20 Oct 2014 (Local Time) from KMVL Reporting Station
Broken Clouds Broken Clouds  
Wind Chill: 48°   Ceiling: 9500
Heat Index: 48°   Visibility: 10mi
Dew Point: 31°   Wind: 3mph
Humidity: 52%   Direction: NA
Pressure: 29.93"   Gusts: NA
Location:  44.47°N, 72.68°W
Report Text: KMVL 201754Z AUTO VRB03KT 10SM BKN095 BKN110 09/M01 A2993 RMK AO2 SLP142 T00891006 10094 20011 58019
Loading
Personal Weather Stations






























Interactive Weather Map New forecast layout! Learn more

10-Day Weather Forecast

Advertisements
Track Severe Weather on mobile